sensor_id;sensor_type;location;lat;lon;timestamp;pressure;altitude;pressure_sealevel;temperature;humidity
78229;BME280;74448;49.082;9.152;2023-12-22T00:01:12;98036.97;;;8.93;65.23
78229;BME280;74448;49.082;9.152;2023-12-22T00:03:45;98024.78;;;8.82;65.14
78229;BME280;74448;49.082;9.152;2023-12-22T00:06:16;98028.81;;;8.86;65.11
78229;BME280;74448;49.082;9.152;2023-12-22T00:08:42;98034.06;;;8.86;65.48
78229;BME280;74448;49.082;9.152;2023-12-22T00:11:09;98011.59;;;8.72;65.22
78229;BME280;74448;49.082;9.152;2023-12-22T00:13:36;98037.25;;;8.80;65.81
78229;BME280;74448;49.082;9.152;2023-12-22T00:16:02;98053.63;;;8.84;65.63
78229;BME280;74448;49.082;9.152;2023-12-22T00:18:29;98047.78;;;8.80;65.58
78229;BME280;74448;49.082;9.152;2023-12-22T00:20:56;98070.41;;;8.83;65.53
78229;BME280;74448;49.082;9.152;2023-12-22T00:23:22;98096.03;;;8.81;65.54
78229;BME280;74448;49.082;9.152;2023-12-22T00:25:49;98097.84;;;8.80;65.67
78229;BME280;74448;49.082;9.152;2023-12-22T00:28:16;98123.63;;;8.77;65.73
78229;BME280;74448;49.082;9.152;2023-12-22T00:30:42;98115.03;;;8.75;65.59
78229;BME280;74448;49.082;9.152;2023-12-22T00:33:09;98095.06;;;8.72;65.47
78229;BME280;74448;49.082;9.152;2023-12-22T00:35:36;98075.78;;;8.71;65.68
78229;BME280;74448;49.082;9.152;2023-12-22T00:38:02;98091.59;;;8.71;65.74
78229;BME280;74448;49.082;9.152;2023-12-22T00:40:29;98080.47;;;8.68;65.85
78229;BME280;74448;49.082;9.152;2023-12-22T00:42:56;98084.09;;;8.67;65.52
78229;BME280;74448;49.082;9.152;2023-12-22T00:45:22;98090.75;;;8.61;65.72
78229;BME280;74448;49.082;9.152;2023-12-22T00:47:49;98095.72;;;8.64;65.69
78229;BME280;74448;49.082;9.152;2023-12-22T00:50:16;98105.44;;;8.64;65.32
78229;BME280;74448;49.082;9.152;2023-12-22T00:52:42;98097.25;;;8.57;65.95
78229;BME280;74448;49.082;9.152;2023-12-22T00:55:10;98125.25;;;8.58;66.04
78229;BME280;74448;49.082;9.152;2023-12-22T00:57:37;98086.16;;;8.54;65.55
78229;BME280;74448;49.082;9.152;2023-12-22T01:00:04;98086.84;;;8.56;66.16
78229;BME280;74448;49.082;9.152;2023-12-22T01:02:32;98109.56;;;8.57;65.86
78229;BME280;74448;49.082;9.152;2023-12-22T01:04:58;98067.84;;;8.52;65.94
78229;BME280;74448;49.082;9.152;2023-12-22T01:07:25;98072.28;;;8.52;66.09
78229;BME280;74448;49.082;9.152;2023-12-22T01:09:52;98092.50;;;8.51;65.66
78229;BME280;74448;49.082;9.152;2023-12-22T01:12:20;98091.69;;;8.51;65.85
78229;BME280;74448;49.082;9.152;2023-12-22T01:14:46;98082.38;;;8.46;65.87
78229;BME280;74448;49.082;9.152;2023-12-22T01:17:15;98073.41;;;8.49;65.83
78229;BME280;74448;49.082;9.152;2023-12-22T01:19:42;98074.50;;;8.46;65.99
78229;BME280;74448;49.082;9.152;2023-12-22T01:22:08;98080.97;;;8.42;65.93
78229;BME280;74448;49.082;9.152;2023-12-22T01:24:35;98072.25;;;8.42;65.80
78229;BME280;74448;49.082;9.152;2023-12-22T01:27:06;98079.19;;;8.43;65.75
78229;BME280;74448;49.082;9.152;2023-12-22T01:29:33;98066.41;;;8.38;66.08
78229;BME280;74448;49.082;9.152;2023-12-22T01:31:59;98070.03;;;8.37;65.68
78229;BME280;74448;49.082;9.152;2023-12-22T01:34:26;98060.72;;;8.33;66.13
78229;BME280;74448;49.082;9.152;2023-12-22T01:36:53;98055.91;;;8.38;66.03
78229;BME280;74448;49.082;9.152;2023-12-22T01:39:20;98071.09;;;8.35;65.70
78229;BME280;74448;49.082;9.152;2023-12-22T01:41:46;98065.72;;;8.36;66.21
78229;BME280;74448;49.082;9.152;2023-12-22T01:44:13;98062.63;;;8.31;66.05
78229;BME280;74448;49.082;9.152;2023-12-22T01:46:40;98071.25;;;8.33;66.28
78229;BME280;74448;49.082;9.152;2023-12-22T01:49:07;98081.88;;;8.32;65.76
78229;BME280;74448;49.082;9.152;2023-12-22T01:51:35;98103.22;;;8.29;65.84
78229;BME280;74448;49.082;9.152;2023-12-22T01:54:04;98075.19;;;8.18;65.77
78229;BME280;74448;49.082;9.152;2023-12-22T01:56:31;98091.16;;;8.26;65.57
78229;BME280;74448;49.082;9.152;2023-12-22T01:58:59;98090.91;;;8.29;65.92
78229;BME280;74448;49.082;9.152;2023-12-22T02:01:27;98066.72;;;8.14;65.69
78229;BME280;74448;49.082;9.152;2023-12-22T02:03:55;98107.75;;;8.17;65.89
78229;BME280;74448;49.082;9.152;2023-12-22T02:06:23;98108.19;;;8.22;66.07
78229;BME280;74448;49.082;9.152;2023-12-22T02:08:50;98080.19;;;8.21;66.10
78229;BME280;74448;49.082;9.152;2023-12-22T02:11:17;98060.81;;;8.22;66.00
78229;BME280;74448;49.082;9.152;2023-12-22T02:13:43;98061.19;;;8.17;65.72
78229;BME280;74448;49.082;9.152;2023-12-22T02:16:19;98076.84;;;8.19;65.61
78229;BME280;74448;49.082;9.152;2023-12-22T02:18:49;98070.47;;;8.12;65.88
78229;BME280;74448;49.082;9.152;2023-12-22T02:21:17;98079.78;;;8.16;66.12
78229;BME280;74448;49.082;9.152;2023-12-22T02:23:43;98086.25;;;8.12;65.73
78229;BME280;74448;49.082;9.152;2023-12-22T02:26:12;98081.69;;;8.14;65.72
78229;BME280;74448;49.082;9.152;2023-12-22T02:28:45;98067.13;;;8.10;65.64
78229;BME280;74448;49.082;9.152;2023-12-22T02:31:16;98057.31;;;8.12;65.79
78229;BME280;74448;49.082;9.152;2023-12-22T02:33:46;98078.47;;;8.10;66.06
78229;BME280;74448;49.082;9.152;2023-12-22T02:36:15;98051.59;;;8.07;65.65
78229;BME280;74448;49.082;9.152;2023-12-22T02:38:44;98036.59;;;7.97;66.06
78229;BME280;74448;49.082;9.152;2023-12-22T02:41:12;98056.03;;;8.06;65.87
78229;BME280;74448;49.082;9.152;2023-12-22T02:43:38;98048.13;;;8.06;66.24
78229;BME280;74448;49.082;9.152;2023-12-22T02:46:13;98067.38;;;8.07;66.39
78229;BME280;74448;49.082;9.152;2023-12-22T02:48:40;98058.13;;;8.03;66.13
78229;BME280;74448;49.082;9.152;2023-12-22T02:51:07;98071.28;;;8.03;66.22
78229;BME280;74448;49.082;9.152;2023-12-22T02:53:33;98056.72;;;7.98;65.75
78229;BME280;74448;49.082;9.152;2023-12-22T02:56:00;98065.28;;;8.01;66.35
78229;BME280;74448;49.082;9.152;2023-12-22T02:58:26;98058.38;;;7.99;66.42
78229;BME280;74448;49.082;9.152;2023-12-22T03:00:53;98053.50;;;7.95;66.02
78229;BME280;74448;49.082;9.152;2023-12-22T03:03:20;98062.09;;;7.97;65.98
78229;BME280;74448;49.082;9.152;2023-12-22T03:05:46;98040.22;;;7.96;66.36
78229;BME280;74448;49.082;9.152;2023-12-22T03:08:13;98030.78;;;7.94;66.04
78229;BME280;74448;49.082;9.152;2023-12-22T03:10:39;98024.66;;;7.84;66.03
78229;BME280;74448;49.082;9.152;2023-12-22T03:13:06;98040.47;;;7.93;66.37
78229;BME280;74448;49.082;9.152;2023-12-22T03:15:32;98055.44;;;7.93;65.94
78229;BME280;74448;49.082;9.152;2023-12-22T03:17:59;98067.91;;;7.91;65.86
78229;BME280;74448;49.082;9.152;2023-12-22T03:20:25;98040.84;;;7.79;66.00
78229;BME280;74448;49.082;9.152;2023-12-22T03:22:52;98060.13;;;7.89;65.99
78229;BME280;74448;49.082;9.152;2023-12-22T03:25:19;98042.94;;;7.85;66.01
78229;BME280;74448;49.082;9.152;2023-12-22T03:27:46;98036.25;;;7.81;65.77
78229;BME280;74448;49.082;9.152;2023-12-22T03:30:13;98061.22;;;7.87;66.35
78229;BME280;74448;49.082;9.152;2023-12-22T03:32:39;98066.50;;;7.87;65.95
78229;BME280;74448;49.082;9.152;2023-12-22T03:35:06;98067.56;;;7.84;65.95
78229;BME280;74448;49.082;9.152;2023-12-22T03:37:32;98057.31;;;7.81;66.01
78229;BME280;74448;49.082;9.152;2023-12-22T03:39:59;98052.84;;;7.72;65.77
78229;BME280;74448;49.082;9.152;2023-12-22T03:42:26;98068.78;;;7.80;66.10
78229;BME280;74448;49.082;9.152;2023-12-22T03:44:52;98072.25;;;7.81;66.18
78229;BME280;74448;49.082;9.152;2023-12-22T03:47:19;98060.72;;;7.72;65.60
78229;BME280;74448;49.082;9.152;2023-12-22T03:49:45;98079.31;;;7.80;66.47
78229;BME280;74448;49.082;9.152;2023-12-22T03:52:12;98061.44;;;7.74;66.32
78229;BME280;74448;49.082;9.152;2023-12-22T03:54:39;98076.41;;;7.73;66.25
78229;BME280;74448;49.082;9.152;2023-12-22T03:57:05;98080.44;;;7.78;65.94
78229;BME280;74448;49.082;9.152;2023-12-22T03:59:32;98093.59;;;7.78;66.50
78229;BME280;74448;49.082;9.152;2023-12-22T04:01:58;98082.47;;;7.74;66.24
78229;BME280;74448;49.082;9.152;2023-12-22T04:04:27;98056.94;;;7.65;66.07
78229;BME280;74448;49.082;9.152;2023-12-22T04:06:54;98067.47;;;7.65;66.00
78229;BME280;74448;49.082;9.152;2023-12-22T04:09:21;98080.78;;;7.73;66.48
78229;BME280;74448;49.082;9.152;2023-12-22T04:11:47;98077.22;;;7.74;66.13
78229;BME280;74448;49.082;9.152;2023-12-22T04:14:14;98084.41;;;7.72;65.99
78229;BME280;74448;49.082;9.152;2023-12-22T04:16:41;98097.53;;;7.72;65.84
78229;BME280;74448;49.082;9.152;2023-12-22T04:19:08;98095.16;;;7.69;66.24
78229;BME280;74448;49.082;9.152;2023-12-22T04:21:38;98089.91;;;7.69;66.46
78229;BME280;74448;49.082;9.152;2023-12-22T04:24:05;98085.50;;;7.69;66.34
78229;BME280;74448;49.082;9.152;2023-12-22T04:26:31;98078.94;;;7.64;66.20
78229;BME280;74448;49.082;9.152;2023-12-22T04:28:58;98073.69;;;7.64;65.91
78229;BME280;74448;49.082;9.152;2023-12-22T04:31:24;98079.91;;;7.63;66.13
78229;BME280;74448;49.082;9.152;2023-12-22T04:33:51;98077.97;;;7.65;66.55
78229;BME280;74448;49.082;9.152;2023-12-22T04:36:18;98077.44;;;7.61;66.47
78229;BME280;74448;49.082;9.152;2023-12-22T04:38:44;98090.44;;;7.63;65.65
78229;BME280;74448;49.082;9.152;2023-12-22T04:41:11;98091.66;;;7.59;66.23
78229;BME280;74448;49.082;9.152;2023-12-22T04:43:37;98088.34;;;7.57;65.74
78229;BME280;74448;49.082;9.152;2023-12-22T04:46:04;98093.31;;;7.60;66.20
78229;BME280;74448;49.082;9.152;2023-12-22T04:48:31;98116.03;;;7.61;65.96
78229;BME280;74448;49.082;9.152;2023-12-22T04:50:59;98099.34;;;7.51;65.80
78229;BME280;74448;49.082;9.152;2023-12-22T04:53:26;98125.59;;;7.62;66.12
78229;BME280;74448;49.082;9.152;2023-12-22T04:55:53;98118.69;;;7.61;65.85
78229;BME280;74448;49.082;9.152;2023-12-22T04:58:19;98113.41;;;7.61;65.87
78229;BME280;74448;49.082;9.152;2023-12-22T05:00:46;98123.22;;;7.59;65.75
78229;BME280;74448;49.082;9.152;2023-12-22T05:03:12;98110.00;;;7.49;66.03
78229;BME280;74448;49.082;9.152;2023-12-22T05:05:39;98130.66;;;7.54;66.51
78229;BME280;74448;49.082;9.152;2023-12-22T05:08:06;98141.88;;;7.56;65.74
78229;BME280;74448;49.082;9.152;2023-12-22T05:10:32;98131.28;;;7.46;66.23
78229;BME280;74448;49.082;9.152;2023-12-22T05:12:59;98147.41;;;7.53;65.75
78229;BME280;74448;49.082;9.152;2023-12-22T05:15:26;98143.81;;;7.54;66.33
78229;BME280;74448;49.082;9.152;2023-12-22T05:17:52;98145.47;;;7.55;65.92
78229;BME280;74448;49.082;9.152;2023-12-22T05:20:19;98141.88;;;7.56;66.15
78229;BME280;74448;49.082;9.152;2023-12-22T05:22:46;98136.53;;;7.46;66.40
78229;BME280;74448;49.082;9.152;2023-12-22T05:25:13;98142.16;;;7.53;66.12
78229;BME280;74448;49.082;9.152;2023-12-22T05:27:40;98136.03;;;7.52;66.02
78229;BME280;74448;49.082;9.152;2023-12-22T05:30:09;98135.47;;;7.48;65.79
78229;BME280;74448;49.082;9.152;2023-12-22T05:32:36;98168.53;;;7.51;66.08
78229;BME280;74448;49.082;9.152;2023-12-22T05:35:03;98154.56;;;7.51;65.69
78229;BME280;74448;49.082;9.152;2023-12-22T05:37:30;98151.50;;;7.45;66.45
78229;BME280;74448;49.082;9.152;2023-12-22T05:39:57;98158.16;;;7.49;65.78
78229;BME280;74448;49.082;9.152;2023-12-22T05:42:23;98152.91;;;7.49;65.57
78229;BME280;74448;49.082;9.152;2023-12-22T05:44:50;98142.38;;;7.49;66.00
78229;BME280;74448;49.082;9.152;2023-12-22T05:47:17;98152.19;;;7.47;65.97
78229;BME280;74448;49.082;9.152;2023-12-22T05:49:44;98135.50;;;7.37;65.50
78229;BME280;74448;49.082;9.152;2023-12-22T05:52:12;98161.75;;;7.48;65.68
78229;BME280;74448;49.082;9.152;2023-12-22T05:54:38;98157.81;;;7.43;66.15
78229;BME280;74448;49.082;9.152;2023-12-22T05:57:05;98160.91;;;7.48;65.44
78229;BME280;74448;49.082;9.152;2023-12-22T05:59:33;98177.06;;;7.43;65.49
78229;BME280;74448;49.082;9.152;2023-12-22T06:02:01;98197.16;;;7.44;65.88
78229;BME280;74448;49.082;9.152;2023-12-22T06:04:29;98186.88;;;7.41;65.79
78229;BME280;74448;49.082;9.152;2023-12-22T06:06:56;98168.03;;;7.36;66.23
78229;BME280;74448;49.082;9.152;2023-12-22T06:09:23;98193.56;;;7.45;66.32
78229;BME280;74448;49.082;9.152;2023-12-22T06:11:49;98192.97;;;7.42;66.32
78229;BME280;74448;49.082;9.152;2023-12-22T06:14:16;98214.59;;;7.45;65.74
78229;BME280;74448;49.082;9.152;2023-12-22T06:16:42;98198.09;;;7.43;66.01
78229;BME280;74448;49.082;9.152;2023-12-22T06:19:09;98201.69;;;7.42;66.34
78229;BME280;74448;49.082;9.152;2023-12-22T06:21:39;98223.69;;;7.41;66.19
78229;BME280;74448;49.082;9.152;2023-12-22T06:24:07;98223.53;;;7.43;65.99
78229;BME280;74448;49.082;9.152;2023-12-22T06:26:35;98217.00;;;7.37;65.71
78229;BME280;74448;49.082;9.152;2023-12-22T06:29:01;98217.69;;;7.39;65.70
78229;BME280;74448;49.082;9.152;2023-12-22T06:31:30;98220.09;;;7.42;66.07
78229;BME280;74448;49.082;9.152;2023-12-22T06:33:57;98217.69;;;7.39;66.10
78229;BME280;74448;49.082;9.152;2023-12-22T06:36:28;98227.38;;;7.39;65.48
78229;BME280;74448;49.082;9.152;2023-12-22T06:38:57;98224.06;;;7.37;66.13
78229;BME280;74448;49.082;9.152;2023-12-22T06:41:26;98229.19;;;7.38;65.54
78229;BME280;74448;49.082;9.152;2023-12-22T06:43:54;98227.50;;;7.37;65.64
78229;BME280;74448;49.082;9.152;2023-12-22T06:46:23;98213.53;;;7.37;65.78
78229;BME280;74448;49.082;9.152;2023-12-22T06:48:53;98224.06;;;7.37;65.77
78229;BME280;74448;49.082;9.152;2023-12-22T06:53:53;98240.66;;;7.37;65.93
78229;BME280;74448;49.082;9.152;2023-12-22T06:56:21;98248.53;;;7.37;66.37
78229;BME280;74448;49.082;9.152;2023-12-22T06:58:49;98239.38;;;7.32;66.47
78229;BME280;74448;49.082;9.152;2023-12-22T07:01:23;98259.28;;;7.34;65.96
78229;BME280;74448;49.082;9.152;2023-12-22T07:03:50;98265.28;;;7.36;65.73
78229;BME280;74448;49.082;9.152;2023-12-22T07:06:18;98254.28;;;7.31;65.95
78229;BME280;74448;49.082;9.152;2023-12-22T07:11:46;98278.66;;;7.33;65.95
78229;BME280;74448;49.082;9.152;2023-12-22T07:14:13;98258.63;;;7.21;66.27
78229;BME280;74448;49.082;9.152;2023-12-22T07:16:39;98278.78;;;7.32;65.85
78229;BME280;74448;49.082;9.152;2023-12-22T07:19:06;98282.50;;;7.29;66.47
78229;BME280;74448;49.082;9.152;2023-12-22T07:21:33;98302.78;;;7.27;65.51
78229;BME280;74448;49.082;9.152;2023-12-22T07:24:00;98290.50;;;7.28;66.07
78229;BME280;74448;49.082;9.152;2023-12-22T07:26:27;98315.69;;;7.30;66.49
78229;BME280;74448;49.082;9.152;2023-12-22T07:28:54;98296.84;;;7.25;65.66
78229;BME280;74448;49.082;9.152;2023-12-22T07:31:21;98308.66;;;7.31;66.41
78229;BME280;74448;49.082;9.152;2023-12-22T07:33:48;98312.38;;;7.28;65.61
78229;BME280;74448;49.082;9.152;2023-12-22T07:36:15;98320.63;;;7.23;66.07
78229;BME280;74448;49.082;9.152;2023-12-22T07:38:41;98340.31;;;7.29;65.77
78229;BME280;74448;49.082;9.152;2023-12-22T07:41:08;98340.56;;;7.26;66.08
78229;BME280;74448;49.082;9.152;2023-12-22T07:43:37;98342.72;;;7.21;65.69
78229;BME280;74448;49.082;9.152;2023-12-22T07:46:04;98363.25;;;7.27;66.18
78229;BME280;74448;49.082;9.152;2023-12-22T07:48:31;98355.47;;;7.26;66.05
78229;BME280;74448;49.082;9.152;2023-12-22T07:50:57;98345.09;;;7.13;65.90
78229;BME280;74448;49.082;9.152;2023-12-22T07:53:24;98367.31;;;7.20;65.47
78229;BME280;74448;49.082;9.152;2023-12-22T07:55:50;98356.56;;;7.23;65.99
78229;BME280;74448;49.082;9.152;2023-12-22T07:58:17;98360.75;;;7.26;65.64
78229;BME280;74448;49.082;9.152;2023-12-22T08:00:44;98368.75;;;7.24;65.51
78229;BME280;74448;49.082;9.152;2023-12-22T08:03:12;98346.91;;;7.12;65.60
78229;BME280;74448;49.082;9.152;2023-12-22T08:05:39;98364.44;;;7.23;65.75
78229;BME280;74448;49.082;9.152;2023-12-22T08:08:06;98363.72;;;7.21;65.82
78229;BME280;74448;49.082;9.152;2023-12-22T08:10:33;98377.72;;;7.21;66.40
78229;BME280;74448;49.082;9.152;2023-12-22T08:12:59;98363.50;;;7.13;66.04
78229;BME280;74448;49.082;9.152;2023-12-22T08:15:26;98372.59;;;7.20;66.57
78229;BME280;74448;49.082;9.152;2023-12-22T08:18:02;98353.94;;;7.12;65.43
78229;BME280;74448;49.082;9.152;2023-12-22T08:20:29;98371.84;;;7.18;66.47
78229;BME280;74448;49.082;9.152;2023-12-22T08:23:02;98368.88;;;7.11;66.18
78229;BME280;74448;49.082;9.152;2023-12-22T08:25:35;98378.53;;;7.22;65.70
78229;BME280;74448;49.082;9.152;2023-12-22T08:28:02;98363.13;;;7.17;66.37
78229;BME280;74448;49.082;9.152;2023-12-22T08:30:29;98373.28;;;7.22;66.47
78229;BME280;74448;49.082;9.152;2023-12-22T08:32:56;98354.28;;;7.18;66.06
78229;BME280;74448;49.082;9.152;2023-12-22T08:35:22;98340.56;;;7.04;66.32
78229;BME280;74448;49.082;9.152;2023-12-22T08:37:49;98352.38;;;7.20;66.32
78229;BME280;74448;49.082;9.152;2023-12-22T08:40:16;98327.06;;;7.08;66.45
78229;BME280;74448;49.082;9.152;2023-12-22T08:42:43;98355.38;;;7.16;65.82
78229;BME280;74448;49.082;9.152;2023-12-22T08:45:10;98370.06;;;7.18;65.86
78229;BME280;74448;49.082;9.152;2023-12-22T08:47:36;98363.00;;;7.19;65.58
78229;BME280;74448;49.082;9.152;2023-12-22T08:50:03;98368.75;;;7.13;65.90
78229;BME280;74448;49.082;9.152;2023-12-22T08:52:31;98366.72;;;7.16;65.51
78229;BME280;74448;49.082;9.152;2023-12-22T08:54:58;98348.47;;;7.15;65.58
78229;BME280;74448;49.082;9.152;2023-12-22T08:57:24;98359.69;;;7.17;66.14
78229;BME280;74448;49.082;9.152;2023-12-22T08:59:51;98345.09;;;7.13;66.58
78229;BME280;74448;49.082;9.152;2023-12-22T09:02:18;98319.56;;;7.04;66.09
78229;BME280;74448;49.082;9.152;2023-12-22T09:04:44;98324.56;;;7.07;65.96
78229;BME280;74448;49.082;9.152;2023-12-22T09:07:11;98330.78;;;7.17;66.56
78229;BME280;74448;49.082;9.152;2023-12-22T09:09:38;98324.91;;;7.13;65.81
78229;BME280;74448;49.082;9.152;2023-12-22T09:12:04;98335.31;;;7.15;66.13
78229;BME280;74448;49.082;9.152;2023-12-22T09:14:31;98341.28;;;7.17;66.12
78229;BME280;74448;49.082;9.152;2023-12-22T09:16:58;98336.03;;;7.17;66.55
78229;BME280;74448;49.082;9.152;2023-12-22T09:19:24;98344.88;;;7.16;66.73
78229;BME280;74448;49.082;9.152;2023-12-22T09:21:53;98344.28;;;7.12;66.71
78229;BME280;74448;49.082;9.152;2023-12-22T09:24:19;98362.53;;;7.14;66.05
78229;BME280;74448;49.082;9.152;2023-12-22T09:26:46;98375.56;;;7.15;66.26
78229;BME280;74448;49.082;9.152;2023-12-22T09:29:13;98384.53;;;7.13;66.46
78229;BME280;74448;49.082;9.152;2023-12-22T09:31:39;98380.31;;;7.10;66.69
78229;BME280;74448;49.082;9.152;2023-12-22T09:34:06;98384.53;;;7.13;65.60
78229;BME280;74448;49.082;9.152;2023-12-22T09:36:32;98394.06;;;7.14;66.70
78229;BME280;74448;49.082;9.152;2023-12-22T09:38:59;98365.19;;;7.03;66.40
78229;BME280;74448;49.082;9.152;2023-12-22T09:41:26;98385.25;;;7.15;66.56
78229;BME280;74448;49.082;9.152;2023-12-22T09:43:55;98383.81;;;7.11;66.67
78229;BME280;74448;49.082;9.152;2023-12-22T09:46:23;98391.56;;;7.12;66.63
78229;BME280;74448;49.082;9.152;2023-12-22T09:48:51;98382.84;;;7.12;66.15
78229;BME280;74448;49.082;9.152;2023-12-22T09:51:18;98391.56;;;7.12;66.70
78229;BME280;74448;49.082;9.152;2023-12-22T09:53:46;98386.31;;;7.12;66.49
78229;BME280;74448;49.082;9.152;2023-12-22T09:56:14;98376.03;;;7.09;66.79
78229;BME280;74448;49.082;9.152;2023-12-22T09:58:42;98372.34;;;7.12;66.56
78229;BME280;74448;49.082;9.152;2023-12-22T10:01:10;98362.66;;;7.12;66.27
78229;BME280;74448;49.082;9.152;2023-12-22T10:03:37;98355.84;;;7.10;65.80
78229;BME280;74448;49.082;9.152;2023-12-22T10:06:05;98370.91;;;7.08;66.58
78229;BME280;74448;49.082;9.152;2023-12-22T10:08:32;98358.25;;;7.13;66.01
78229;BME280;74448;49.082;9.152;2023-12-22T10:10:59;98361.22;;;7.08;66.55
78229;BME280;74448;49.082;9.152;2023-12-22T10:13:26;98354.19;;;7.09;66.76
78229;BME280;74448;49.082;9.152;2023-12-22T10:15:54;98356.09;;;7.07;66.27
78229;BME280;74448;49.082;9.152;2023-12-22T10:18:22;98338.66;;;7.06;66.20
78229;BME280;74448;49.082;9.152;2023-12-22T10:20:49;98353.94;;;7.12;66.60
78229;BME280;74448;49.082;9.152;2023-12-22T10:23:15;98342.22;;;7.05;65.75
78229;BME280;74448;49.082;9.152;2023-12-22T10:25:42;98343.19;;;7.04;66.28
78229;BME280;74448;49.082;9.152;2023-12-22T10:28:11;98347.03;;;7.11;66.68
78229;BME280;74448;49.082;9.152;2023-12-22T10:30:40;98342.72;;;7.10;66.84
78229;BME280;74448;49.082;9.152;2023-12-22T10:33:07;98343.66;;;7.09;66.43
78229;BME280;74448;49.082;9.152;2023-12-22T10:35:34;98338.53;;;7.07;65.72
78229;BME280;74448;49.082;9.152;2023-12-22T10:38:00;98348.09;;;7.08;66.50
78229;BME280;74448;49.082;9.152;2023-12-22T10:40:30;98311.44;;;6.95;65.93
78229;BME280;74448;49.082;9.152;2023-12-22T10:42:58;98327.19;;;7.07;66.03
78229;BME280;74448;49.082;9.152;2023-12-22T10:45:25;98302.00;;;7.04;66.16
78229;BME280;74448;49.082;9.152;2023-12-22T10:47:51;98305.44;;;7.05;66.36
78229;BME280;74448;49.082;9.152;2023-12-22T10:50:20;98287.19;;;7.03;65.86
78229;BME280;74448;49.082;9.152;2023-12-22T10:52:50;98284.44;;;7.05;65.89
78229;BME280;74448;49.082;9.152;2023-12-22T10:55:18;98289.47;;;7.08;66.34
78229;BME280;74448;49.082;9.152;2023-12-22T10:57:48;98292.19;;;7.06;66.17
78229;BME280;74448;49.082;9.152;2023-12-22T11:00:16;98304.25;;;7.09;66.12
78229;BME280;74448;49.082;9.152;2023-12-22T11:02:43;98267.59;;;6.96;65.76
78229;BME280;74448;49.082;9.152;2023-12-22T11:05:14;98286.81;;;7.08;66.55
78229;BME280;74448;49.082;9.152;2023-12-22T11:07:48;98294.72;;;7.08;65.96
78229;BME280;74448;49.082;9.152;2023-12-22T11:10:18;98285.25;;;7.05;66.16
78229;BME280;74448;49.082;9.152;2023-12-22T11:12:47;98271.44;;;7.03;66.51
78229;BME280;74448;49.082;9.152;2023-12-22T11:15:14;98281.09;;;7.03;65.98
78229;BME280;74448;49.082;9.152;2023-12-22T11:17:42;98267.59;;;7.07;66.53
78229;BME280;74448;49.082;9.152;2023-12-22T11:20:09;98278.94;;;7.08;66.21
78229;BME280;74448;49.082;9.152;2023-12-22T11:22:38;98263.19;;;7.08;66.23
78229;BME280;74448;49.082;9.152;2023-12-22T11:25:06;98258.16;;;7.05;66.33
78229;BME280;74448;49.082;9.152;2023-12-22T11:27:36;98256.25;;;7.07;66.01
78229;BME280;74448;49.082;9.152;2023-12-22T11:30:07;98246.00;;;7.04;66.49
78229;BME280;74448;49.082;9.152;2023-12-22T11:32:35;98248.47;;;7.05;66.24
78229;BME280;74448;49.082;9.152;2023-12-22T11:35:03;98233.56;;;7.06;65.74
78229;BME280;74448;49.082;9.152;2023-12-22T11:37:32;98224.13;;;7.03;66.04
78229;BME280;74448;49.082;9.152;2023-12-22T11:40:00;98225.06;;;7.02;65.83
78229;BME280;74448;49.082;9.152;2023-12-22T11:42:33;98207.41;;;7.04;66.15
78229;BME280;74448;49.082;9.152;2023-12-22T11:45:04;98227.59;;;7.04;66.05
78229;BME280;74448;49.082;9.152;2023-12-22T11:47:31;98220.31;;;7.07;66.09
78229;BME280;74448;49.082;9.152;2023-12-22T11:49:58;98207.53;;;7.03;66.22
78229;BME280;74448;49.082;9.152;2023-12-22T11:52:26;98205.63;;;7.05;65.51
78229;BME280;74448;49.082;9.152;2023-12-22T11:54:56;98196.78;;;7.06;66.62
78229;BME280;74448;49.082;9.152;2023-12-22T12:02:30;98173.94;;;7.06;66.39
78229;BME280;74448;49.082;9.152;2023-12-22T12:04:58;98175.06;;;7.04;66.59
78229;BME280;74448;49.082;9.152;2023-12-22T12:07:38;98165.25;;;7.06;65.98
78229;BME280;74448;49.082;9.152;2023-12-22T12:10:07;98154.72;;;7.06;66.58
78229;BME280;74448;49.082;9.152;2023-12-22T12:12:34;98156.78;;;7.02;66.61
78229;BME280;74448;49.082;9.152;2023-12-22T12:15:29;98155.00;;;7.03;66.73
78229;BME280;74448;49.082;9.152;2023-12-22T12:17:55;98142.56;;;7.05;66.04
78229;BME280;74448;49.082;9.152;2023-12-22T12:20:22;98149.75;;;7.03;66.35
78229;BME280;74448;49.082;9.152;2023-12-22T12:22:49;98138.13;;;7.05;66.47
78229;BME280;74448;49.082;9.152;2023-12-22T12:25:16;98135.50;;;7.05;65.73
78229;BME280;74448;49.082;9.152;2023-12-22T12:28:08;98141.59;;;7.06;66.78
78229;BME280;74448;49.082;9.152;2023-12-22T12:30:37;98130.25;;;7.05;66.50
78229;BME280;74448;49.082;9.152;2023-12-22T12:33:08;98127.19;;;7.00;66.87
78229;BME280;74448;49.082;9.152;2023-12-22T12:35:37;98136.47;;;7.04;66.77
78229;BME280;74448;49.082;9.152;2023-12-22T12:38:11;98125.97;;;7.04;66.48
78229;BME280;74448;49.082;9.152;2023-12-22T12:40:39;98132.06;;;7.05;66.69
78229;BME280;74448;49.082;9.152;2023-12-22T12:43:07;98144.22;;;7.06;66.40
78229;BME280;74448;49.082;9.152;2023-12-22T12:45:33;98134.53;;;7.06;66.27
78229;BME280;74448;49.082;9.152;2023-12-22T12:48:03;98127.88;;;7.02;67.04
78229;BME280;74448;49.082;9.152;2023-12-22T12:50:33;98134.69;;;7.05;66.66
78229;BME280;74448;49.082;9.152;2023-12-22T12:53:00;98132.28;;;7.02;67.11
78229;BME280;74448;49.082;9.152;2023-12-22T12:55:27;98127.63;;;7.05;66.50
78229;BME280;74448;49.082;9.152;2023-12-22T12:57:55;98118.91;;;7.05;66.45
78229;BME280;74448;49.082;9.152;2023-12-22T13:00:33;98119.88;;;7.04;66.70
78229;BME280;74448;49.082;9.152;2023-12-22T13:03:04;98126.81;;;7.05;66.22
78229;BME280;74448;49.082;9.152;2023-12-22T13:05:33;98126.09;;;7.03;66.08
78229;BME280;74448;49.082;9.152;2023-12-22T13:08:13;98111.75;;;7.07;66.96
78229;BME280;74448;49.082;9.152;2023-12-22T13:10:40;98128.34;;;7.07;66.73
78229;BME280;74448;49.082;9.152;2023-12-22T13:13:08;98126.66;;;7.06;66.66
78229;BME280;74448;49.082;9.152;2023-12-22T13:15:35;98126.66;;;7.06;66.67
78229;BME280;74448;49.082;9.152;2023-12-22T13:18:02;98124.03;;;7.06;66.66
78229;BME280;74448;49.082;9.152;2023-12-22T13:20:29;98110.81;;;6.96;66.84
78229;BME280;74448;49.082;9.152;2023-12-22T13:22:56;98124.91;;;7.07;66.72